<?xml version="1.0" encoding="UTF-8" standalone="no" ?><gpx xmlns="http://www.topografix.com/GPX/1/1" xmlns:gpxx="http://www.garmin.com/xmlschemas/GpxExtensions/v3" xmlns:wptx1="http://www.garmin.com/xmlschemas/WaypointExtension/v1" xmlns:gpxtpx="http://www.garmin.com/xmlschemas/TrackPointExtension/v1" creator="GuideVTT.com" version="1.1" xmlns:xsi="http://www.w3.org/2001/XMLSchema-instance" xsi:schemaLocation="http://www.topografix.com/GPX/1/1 http://www.topografix.com/GPX/1/1/gpx.xsd http://www.garmin.com/xmlschemas/GpxExtensions/v3 http://www8.garmin.com/xmlschemas/GpxExtensionsv3.xsd http://www.garmin.com/xmlschemas/WaypointExtension/v1 http://www8.garmin.com/xmlschemas/WaypointExtensionv1.xsd http://www.garmin.com/xmlschemas/TrackPointExtension/v1 http://www.garmin.com/xmlschemas/TrackPointExtensionv1.xsd">
<metadata><link href="http://www.garmin.com"><text>Garmin International</text></link><time>2013-06-22T15:13:50Z</time></metadata>
<trk><name>marche4.gpx</name><extensions><gpxx:TrackExtension><gpxx:DisplayColor>Cyan</gpxx:DisplayColor></gpxx:TrackExtension></extensions><trkseg>
<trkpt lat="31.04596250" lon="-6.10406566"><ele></ele><time>2014-6-17T11:50:23Z</time></trkpt>
<trkpt lat="31.12226564" lon="-6.08965818"><ele></ele><time>2014-6-17T11:50:26Z</time></trkpt>
<trkpt lat="31.02995147" lon="-6.06562953"><ele></ele><time>2014-6-17T11:50:29Z</time></trkpt>
<trkpt lat="31.21511852" lon="-5.85317317"><ele></ele><time>2014-6-17T11:50:32Z</time></trkpt>
<trkpt lat="31.04107493" lon="-5.89785023"><ele></ele><time>2014-6-17T11:50:35Z</time></trkpt>
<trkpt lat="31.12100484" lon="-5.83782616"><ele></ele><time>2014-6-17T11:50:38Z</time></trkpt>
<trkpt lat="31.14763850" lon="-5.83634290"><ele></ele><time>2014-6-17T11:50:41Z</time></trkpt>
<trkpt lat="31.03246420" lon="-6.10884754"><ele></ele><time>2014-6-17T11:50:44Z</time></trkpt>
<trkpt lat="31.01528691" lon="-5.95961932"><ele></ele><time>2014-6-17T11:50:47Z</time></trkpt>
<trkpt lat="" lon=""><ele></ele><time>2014-6-17T11:50:50Z</time></trkpt>
<trkpt lat="31.04091181" lon="-5.89791954"><ele></ele><time>2014-6-17T11:50:53Z</time></trkpt>
<trkpt lat="31.04091424" lon="-5.89789172"><ele></ele><time>2014-6-17T11:50:56Z</time></trkpt>
<trkpt lat="31.04091458" lon="-5.89789364"><ele></ele><time>2014-6-17T11:50:59Z</time></trkpt>
<trkpt lat="31.04090637" lon="-5.89789348"><ele></ele><time>2014-6-17T11:51:2Z</time></trkpt>
<trkpt lat="31.04119663" lon="-5.89729032"><ele></ele><time>2014-6-17T11:51:5Z</time></trkpt>
<trkpt lat="31.04102472" lon="-5.89738939"><ele></ele><time>2014-6-17T11:51:8Z</time></trkpt>
<trkpt lat="31.04102095" lon="-5.89720088"><ele></ele><time>2014-6-17T11:51:11Z</time></trkpt>
<trkpt lat="31.04105984" lon="-5.89611324"><ele></ele><time>2014-6-17T11:51:14Z</time></trkpt>
<trkpt lat="31.04125489" lon="-5.89541537"><ele></ele><time>2014-6-17T11:51:17Z</time></trkpt>
<trkpt lat="31.04137634" lon="-5.89522594"><ele></ele><time>2014-6-17T11:51:20Z</time></trkpt>
<trkpt lat="31.04154071" lon="-5.89479636"><ele></ele><time>2014-6-17T11:51:23Z</time></trkpt>
<trkpt lat="31.04177046" lon="-5.89464390"><ele></ele><time>2014-6-17T11:51:26Z</time></trkpt>
<trkpt lat="31.04202292" lon="-5.89458891"><ele></ele><time>2014-6-17T11:51:29Z</time></trkpt>
<trkpt lat="31.04230740" lon="-5.89439956"><ele></ele><time>2014-6-17T11:51:32Z</time></trkpt>
<trkpt lat="31.04245551" lon="-5.89424509"><ele></ele><time>2014-6-17T11:51:35Z</time></trkpt>
<trkpt lat="31.04255391" lon="-5.89421181"><ele></ele><time>2014-6-17T11:51:38Z</time></trkpt>
<trkpt lat="31.04256808" lon="-5.89408985"><ele></ele><time>2014-6-17T11:51:41Z</time></trkpt>
<trkpt lat="31.04271392" lon="-5.89387528"><ele></ele><time>2014-6-17T11:51:44Z</time></trkpt>
<trkpt lat="31.04267118" lon="-5.89383152"><ele></ele><time>2014-6-17T11:51:47Z</time></trkpt>
<trkpt lat="31.04280193" lon="-5.89351410"><ele></ele><time>2014-6-17T11:51:50Z</time></trkpt>
<trkpt lat="31.04271652" lon="-5.89342995"><ele></ele><time>2014-6-17T11:51:53Z</time></trkpt>
<trkpt lat="31.04307585" lon="-5.89307263"><ele></ele><time>2014-6-17T11:51:56Z</time></trkpt>
<trkpt lat="31.04355522" lon="-5.89284556"><ele></ele><time>2014-6-17T11:51:59Z</time></trkpt>
<trkpt lat="31.04373132" lon="-5.89273022"><ele></ele><time>2014-6-17T11:52:2Z</time></trkpt>
<trkpt lat="31.04380634" lon="-5.89255689"><ele></ele><time>2014-6-17T11:52:5Z</time></trkpt>
<trkpt lat="31.04377851" lon="-5.89200234"><ele></ele><time>2014-6-17T11:52:8Z</time></trkpt>
<trkpt lat="31.04371925" lon="-5.89193780"><ele></ele><time>2014-6-17T11:52:11Z</time></trkpt>
<trkpt lat="31.04384028" lon="-5.89142407"><ele></ele><time>2014-6-17T11:52:14Z</time></trkpt>
<trkpt lat="31.04389829" lon="-5.89132668"><ele></ele><time>2014-6-17T11:52:17Z</time></trkpt>
<trkpt lat="31.04401236" lon="-5.89097950"><ele></ele><time>2014-6-17T11:52:20Z</time></trkpt>
<trkpt lat="31.04388957" lon="-5.89048270"><ele></ele><time>2014-6-17T11:52:23Z</time></trkpt>
<trkpt lat="31.04387381" lon="-5.89017416"><ele></ele><time>2014-6-17T11:52:26Z</time></trkpt>
<trkpt lat="31.04405846" lon="-5.88979002"><ele></ele><time>2014-6-17T11:52:29Z</time></trkpt>
<trkpt lat="31.04441193" lon="-5.88917848"><ele></ele><time>2014-6-17T11:52:32Z</time></trkpt>
<trkpt lat="31.04455308" lon="-5.88873239"><ele></ele><time>2014-6-17T11:52:35Z</time></trkpt>
<trkpt lat="31.04516773" lon="-5.88784508"><ele></ele><time>2014-6-17T11:52:38Z</time></trkpt>
<trkpt lat="31.04572831" lon="-5.88729993"><ele></ele><time>2014-6-17T11:52:41Z</time></trkpt>
<trkpt lat="31.04577290" lon="-5.88717956"><ele></ele><time>2014-6-17T11:52:44Z</time></trkpt>
<trkpt lat="31.04617900" lon="-5.88686298"><ele></ele><time>2014-6-17T11:52:47Z</time></trkpt>
<trkpt lat="31.04651428" lon="-5.88637917"><ele></ele><time>2014-6-17T11:52:50Z</time></trkpt>
<trkpt lat="31.04686967" lon="-5.88593921"><ele></ele><time>2014-6-17T11:52:53Z</time></trkpt>
<trkpt lat="31.04745909" lon="-5.88530025"><ele></ele><time>2014-6-17T11:52:56Z</time></trkpt>
<trkpt lat="31.04785865" lon="-5.88494880"><ele></ele><time>2014-6-17T11:52:59Z</time></trkpt>
<trkpt lat="31.04792755" lon="-5.88456457"><ele></ele><time>2014-6-17T11:53:2Z</time></trkpt>
<trkpt lat="31.04823424" lon="-5.88452141"><ele></ele><time>2014-6-17T11:53:5Z</time></trkpt>
<trkpt lat="31.04863951" lon="-5.88409502"><ele></ele><time>2014-6-17T11:53:8Z</time></trkpt>
<trkpt lat="31.04879793" lon="-5.88402512"><ele></ele><time>2014-6-17T11:53:11Z</time></trkpt>
<trkpt lat="31.04928458" lon="-5.88361977"><ele></ele><time>2014-6-17T11:53:14Z</time></trkpt>
<trkpt lat="31.04934535" lon="-5.88360392"><ele></ele><time>2014-6-17T11:53:17Z</time></trkpt>
<trkpt lat="31.04951718" lon="-5.88348675"><ele></ele><time>2014-6-17T11:53:20Z</time></trkpt>
<trkpt lat="31.04955766" lon="-5.88340268"><ele></ele><time>2014-6-17T11:53:23Z</time></trkpt>
<trkpt lat="31.04982127" lon="-5.88314778"><ele></ele><time>2014-6-17T11:53:26Z</time></trkpt>
<trkpt lat="31.04993275" lon="-5.88298542"><ele></ele><time>2014-6-17T11:53:29Z</time></trkpt>
<trkpt lat="31.05043475" lon="-5.88259810"><ele></ele><time>2014-6-17T11:53:32Z</time></trkpt>
<trkpt lat="31.05068872" lon="-5.88231948"><ele></ele><time>2014-6-17T11:53:35Z</time></trkpt>
<trkpt lat="31.05101804" lon="-5.88180911"><ele></ele><time>2014-6-17T11:53:38Z</time></trkpt>
<trkpt lat="31.05100790" lon="-5.88173258"><ele></ele><time>2014-6-17T11:53:41Z</time></trkpt>
<trkpt lat="31.05141618" lon="-5.88147928"><ele></ele><time>2014-6-17T11:53:44Z</time></trkpt>
<trkpt lat="31.05148818" lon="-5.88140309"><ele></ele><time>2014-6-17T11:53:47Z</time></trkpt>
<trkpt lat="31.05162707" lon="-5.88136730"><ele></ele><time>2014-6-17T11:53:50Z</time></trkpt>
<trkpt lat="31.05183972" lon="-5.88105868"><ele></ele><time>2014-6-17T11:53:53Z</time></trkpt>
<trkpt lat="31.05207793" lon="-5.88087863"><ele></ele><time>2014-6-17T11:53:56Z</time></trkpt>
<trkpt lat="31.05205824" lon="-5.88044210"><ele></ele><time>2014-6-17T11:53:59Z</time></trkpt>
<trkpt lat="31.05203938" lon="-5.88028503"><ele></ele><time>2014-6-17T11:54:2Z</time></trkpt>
<trkpt lat="31.05194500" lon="-5.88013809"><ele></ele><time>2014-6-17T11:54:5Z</time></trkpt>
<trkpt lat="31.05198766" lon="-5.88015268"><ele></ele><time>2014-6-17T11:54:8Z</time></trkpt>
<trkpt lat="31.05211230" lon="-5.88001354"><ele></ele><time>2014-6-17T11:54:11Z</time></trkpt>
<trkpt lat="31.05233082" lon="-5.87969117"><ele></ele><time>2014-6-17T11:54:14Z</time></trkpt>
<trkpt lat="31.05234054" lon="-5.87962260"><ele></ele><time>2014-6-17T11:54:17Z</time></trkpt>
<trkpt lat="31.05238169" lon="-5.87954708"><ele></ele><time>2014-6-17T11:54:20Z</time></trkpt>
<trkpt lat="31.05264262" lon="-5.87959168"><ele></ele><time>2014-6-17T11:54:23Z</time></trkpt>
<trkpt lat="31.05268629" lon="-5.87951448"><ele></ele><time>2014-6-17T11:54:26Z</time></trkpt>
<trkpt lat="31.05289274" lon="-5.87944239"><ele></ele><time>2014-6-17T11:54:29Z</time></trkpt>
<trkpt lat="31.05300447" lon="-5.87944793"><ele></ele><time>2014-6-17T11:54:32Z</time></trkpt>
<trkpt lat="31.05326624" lon="-5.87925020"><ele></ele><time>2014-6-17T11:54:35Z</time></trkpt>
<trkpt lat="31.05342122" lon="-5.87917384"><ele></ele><time>2014-6-17T11:54:38Z</time></trkpt>
<trkpt lat="31.05345600" lon="-5.87919437"><ele></ele><time>2014-6-17T11:54:41Z</time></trkpt>
<trkpt lat="31.05363538" lon="-5.87917769"><ele></ele><time>2014-6-17T11:54:44Z</time></trkpt>
<trkpt lat="31.05364401" lon="-5.87916302"><ele></ele><time>2014-6-17T11:54:47Z</time></trkpt>
<trkpt lat="31.05370729" lon="-5.87933938"><ele></ele><time>2014-6-17T11:54:50Z</time></trkpt>
<trkpt lat="31.05376496" lon="-5.87938607"><ele></ele><time>2014-6-17T11:54:53Z</time></trkpt>
<trkpt lat="31.05387367" lon="-5.87969502"><ele></ele><time>2014-6-17T11:54:56Z</time></trkpt>
<trkpt lat="31.05389337" lon="-5.88002033"><ele></ele><time>2014-6-17T11:54:59Z</time></trkpt>
<trkpt lat="31.05379337" lon="-5.88020959"><ele></ele><time>2014-6-17T11:55:2Z</time></trkpt>
<trkpt lat="31.05388834" lon="-5.88030171"><ele></ele><time>2014-6-17T11:55:5Z</time></trkpt>
<trkpt lat="31.05400560" lon="-5.88031160"><ele></ele><time>2014-6-17T11:55:8Z</time></trkpt>
<trkpt lat="31.05445253" lon="-5.87984380"><ele></ele><time>2014-6-17T11:55:11Z</time></trkpt>
<trkpt lat="31.05453886" lon="-5.87972000"><ele></ele><time>2014-6-17T11:55:14Z</time></trkpt>
<trkpt lat="31.05473701" lon="-5.87967072"><ele></ele><time>2014-6-17T11:55:17Z</time></trkpt>
<trkpt lat="31.05480742" lon="-5.87971271"><ele></ele><time>2014-6-17T11:55:20Z</time></trkpt>
<trkpt lat="31.05512090" lon="-5.87963920"><ele></ele><time>2014-6-17T11:55:23Z</time></trkpt>
<trkpt lat="31.05518083" lon="-5.87953619"><ele></ele><time>2014-6-17T11:55:26Z</time></trkpt>
<trkpt lat="31.05607518" lon="-5.87835342"><ele></ele><time>2014-6-17T11:55:29Z</time></trkpt>
<trkpt lat="31.05613964" lon="-5.87833012"><ele></ele><time>2014-6-17T11:55:32Z</time></trkpt>
<trkpt lat="31.05618490" lon="-5.87825803"><ele></ele><time>2014-6-17T11:55:35Z</time></trkpt>
<trkpt lat="31.05624701" lon="-5.87823473"><ele></ele><time>2014-6-17T11:55:38Z</time></trkpt>
<trkpt lat="31.05643719" lon="-5.87806273"><ele></ele><time>2014-6-17T11:55:41Z</time></trkpt>
<trkpt lat="31.05651481" lon="-5.87804647"><ele></ele><time>2014-6-17T11:55:44Z</time></trkpt>
<trkpt lat="31.05696199" lon="-5.87766065"><ele></ele><time>2014-6-17T11:55:47Z</time></trkpt>
<trkpt lat="31.05710431" lon="-5.87715187"><ele></ele><time>2014-6-17T11:55:50Z</time></trkpt>
<trkpt lat="31.05717069" lon="-5.87710527"><ele></ele><time>2014-6-17T11:55:53Z</time></trkpt>
<trkpt lat="31.05732140" lon="-5.87650294"><ele></ele><time>2014-6-17T11:55:56Z</time></trkpt>
<trkpt lat="31.05739382" lon="-5.87635425"><ele></ele><time>2014-6-17T11:55:59Z</time></trkpt>
<trkpt lat="31.05755744" lon="-5.87611436"><ele></ele><time>2014-6-17T11:56:2Z</time></trkpt>
<trkpt lat="31.05797435" lon="-5.87537231"><ele></ele><time>2014-6-17T11:56:5Z</time></trkpt>
<trkpt lat="31.05797578" lon="-5.87538304"><ele></ele><time>2014-6-17T11:56:8Z</time></trkpt>
<trkpt lat="31.05790151" lon="-5.87506503"><ele></ele><time>2014-6-17T11:56:11Z</time></trkpt>
<trkpt lat="31.05745216" lon="-5.87464074"><ele></ele><time>2014-6-17T11:56:14Z</time></trkpt>
<trkpt lat="31.05749625" lon="-5.87444770"><ele></ele><time>2014-6-17T11:56:17Z</time></trkpt>
<trkpt lat="31.05755450" lon="-5.87445030"><ele></ele><time>2014-6-17T11:56:20Z</time></trkpt>
<trkpt lat="31.05783236" lon="-5.87426783"><ele></ele><time>2014-6-17T11:56:23Z</time></trkpt>
<trkpt lat="31.05793856" lon="-5.87412818"><ele></ele><time>2014-6-17T11:56:26Z</time></trkpt>
<trkpt lat="31.05804468" lon="-5.87413531"><ele></ele><time>2014-6-17T11:56:29Z</time></trkpt>
<trkpt lat="31.05821843" lon="-5.87402341"><ele></ele><time>2014-6-17T11:56:32Z</time></trkpt>
<trkpt lat="31.05837777" lon="-5.87399022"><ele></ele><time>2014-6-17T11:56:35Z</time></trkpt>
<trkpt lat="31.05838766" lon="-5.87403322"><ele></ele><time>2014-6-17T11:56:38Z</time></trkpt>
<trkpt lat="31.05851398" lon="-5.87389684"><ele></ele><time>2014-6-17T11:56:41Z</time></trkpt>
<trkpt lat="31.05878119" lon="-5.87311456"><ele></ele><time>2014-6-17T11:56:44Z</time></trkpt>
<trkpt lat="31.05873141" lon="-5.87303250"><ele></ele><time>2014-6-17T11:56:47Z</time></trkpt>
<trkpt lat="31.05888999" lon="-5.87273268"><ele></ele><time>2014-6-17T11:56:50Z</time></trkpt>
<trkpt lat="31.05893299" lon="-5.87270544"><ele></ele><time>2014-6-17T11:56:53Z</time></trkpt>
<trkpt lat="31.05906660" lon="-5.87273142"><ele></ele><time>2014-6-17T11:56:56Z</time></trkpt>
<trkpt lat="31.05925201" lon="-5.87273268"><ele></ele><time>2014-6-17T11:56:59Z</time></trkpt>
<trkpt lat="31.05970521" lon="-5.87280644"><ele></ele><time>2014-6-17T11:57:2Z</time></trkpt>
<trkpt lat="31.05965149" lon="-5.87282153"><ele></ele><time>2014-6-17T11:57:5Z</time></trkpt>
<trkpt lat="31.05966624" lon="-5.87267778"><ele></ele><time>2014-6-17T11:57:8Z</time></trkpt>
<trkpt lat="31.05978308" lon="-5.87262749"><ele></ele><time>2014-6-17T11:57:11Z</time></trkpt>
<trkpt lat="31.05992197" lon="-5.87242934"><ele></ele><time>2014-6-17T11:57:14Z</time></trkpt>
<trkpt lat="31.06006748" lon="-5.87235969"><ele></ele><time>2014-6-17T11:57:17Z</time></trkpt>
<trkpt lat="31.06016262" lon="-5.87226522"><ele></ele><time>2014-6-17T11:57:20Z</time></trkpt>
<trkpt lat="31.06030041" lon="-5.87211007"><ele></ele><time>2014-6-17T11:57:23Z</time></trkpt>
<trkpt lat="31.06042011" lon="-5.87173657"><ele></ele><time>2014-6-17T11:57:26Z</time></trkpt>
<trkpt lat="31.06054047" lon="-5.87161118"><ele></ele><time>2014-6-17T11:57:29Z</time></trkpt>
<trkpt lat="31.06066612" lon="-5.87137372"><ele></ele><time>2014-6-17T11:57:32Z</time></trkpt>
<trkpt lat="31.06085035" lon="-5.87104733"><ele></ele><time>2014-6-17T11:57:35Z</time></trkpt>
<trkpt lat="31.06087072" lon="-5.87077877"><ele></ele><time>2014-6-17T11:57:38Z</time></trkpt>
<trkpt lat="31.06105361" lon="-5.86999926"><ele></ele><time>2014-6-17T11:57:41Z</time></trkpt>
<trkpt lat="31.06101472" lon="-5.86973581"><ele></ele><time>2014-6-17T11:57:44Z</time></trkpt>
<trkpt lat="31.06107733" lon="-5.86973280"><ele></ele><time>2014-6-17T11:57:47Z</time></trkpt>
<trkpt lat="31.06109384" lon="-5.86975476"><ele></ele><time>2014-6-17T11:57:50Z</time></trkpt>
<trkpt lat="31.06101103" lon="-5.86967085"><ele></ele><time>2014-6-17T11:57:53Z</time></trkpt>
<trkpt lat="31.06115822" lon="-5.86932393"><ele></ele><time>2014-6-17T11:57:56Z</time></trkpt>
<trkpt lat="31.06119283" lon="-5.86931429"><ele></ele><time>2014-6-17T11:57:59Z</time></trkpt>
<trkpt lat="31.06122033" lon="-5.86934421"><ele></ele><time>2014-6-17T11:58:2Z</time></trkpt>
<trkpt lat="31.06115461" lon="-5.86927959"><ele></ele><time>2014-6-17T11:58:5Z</time></trkpt>
<trkpt lat="31.06098211" lon="-5.86887214"><ele></ele><time>2014-6-17T11:58:8Z</time></trkpt>
<trkpt lat="31.06086443" lon="-5.86837401"><ele></ele><time>2014-6-17T11:58:11Z</time></trkpt>
<trkpt lat="31.06100173" lon="-5.86786103"><ele></ele><time>2014-6-17T11:58:14Z</time></trkpt>
<trkpt lat="31.06115989" lon="-5.86749097"><ele></ele><time>2014-6-17T11:58:17Z</time></trkpt>
<trkpt lat="31.06187487" lon="-5.86677239"><ele></ele><time>2014-6-17T11:58:20Z</time></trkpt>
<trkpt lat="31.06191083" lon="-5.86659302"><ele></ele><time>2014-6-17T11:58:23Z</time></trkpt>
<trkpt lat="31.06250930" lon="-5.86547077"><ele></ele><time>2014-6-17T11:58:26Z</time></trkpt>
<trkpt lat="31.06266780" lon="-5.86521797"><ele></ele><time>2014-6-17T11:58:29Z</time></trkpt>
<trkpt lat="31.06266579" lon="-5.86524957"><ele></ele><time>2014-6-17T11:58:32Z</time></trkpt>
<trkpt lat="31.06281532" lon="-5.86485621"><ele></ele><time>2014-6-17T11:58:35Z</time></trkpt>
<trkpt lat="31.06314540" lon="-5.86434533"><ele></ele><time>2014-6-17T11:58:38Z</time></trkpt>
<trkpt lat="31.06383095" lon="-5.86317002"><ele></ele><time>2014-6-17T11:58:41Z</time></trkpt>
<trkpt lat="31.06401879" lon="-5.86275377"><ele></ele><time>2014-6-17T11:58:44Z</time></trkpt>
<trkpt lat="31.06420437" lon="-5.86239235"><ele></ele><time>2014-6-17T11:58:47Z</time></trkpt>
<trkpt lat="31.06430956" lon="-5.86232923"><ele></ele><time>2014-6-17T11:58:50Z</time></trkpt>
<trkpt lat="31.06474064" lon="-5.86182137"><ele></ele><time>2014-6-17T11:58:53Z</time></trkpt>
<trkpt lat="31.06477987" lon="-5.86150479"><ele></ele><time>2014-6-17T11:58:56Z</time></trkpt>
<trkpt lat="31.06489621" lon="-5.86135081"><ele></ele><time>2014-6-17T11:58:59Z</time></trkpt>
<trkpt lat="31.06503493" lon="-5.86126615"><ele></ele><time>2014-6-17T11:59:2Z</time></trkpt>
<trkpt lat="31.06510174" lon="-5.86126565"><ele></ele><time>2014-6-17T11:59:5Z</time></trkpt>
<trkpt lat="31.06548630" lon="-5.86108644"><ele></ele><time>2014-6-17T11:59:8Z</time></trkpt>
<trkpt lat="31.06609290" lon="-5.86105443"><ele></ele><time>2014-6-17T11:59:11Z</time></trkpt>
<trkpt lat="31.06621435" lon="-5.86099768"><ele></ele><time>2014-6-17T11:59:14Z</time></trkpt>
<trkpt lat="31.06651492" lon="-5.86071094"><ele></ele><time>2014-6-17T11:59:17Z</time></trkpt>
<trkpt lat="31.06675263" lon="-5.86007458"><ele></ele><time>2014-6-17T11:59:20Z</time></trkpt>
<trkpt lat="31.06703301" lon="-5.85992957"><ele></ele><time>2014-6-17T11:59:23Z</time></trkpt>
<trkpt lat="31.06728371" lon="-5.85976822"><ele></ele><time>2014-6-17T11:59:26Z</time></trkpt>
<trkpt lat="31.06790137" lon="-5.85942700"><ele></ele><time>2014-6-17T11:59:29Z</time></trkpt>
<trkpt lat="31.06783072" lon="-5.85979144"><ele></ele><time>2014-6-17T11:59:32Z</time></trkpt>
<trkpt lat="31.06777975" lon="-5.85983017"><ele></ele><time>2014-6-17T11:59:35Z</time></trkpt>
<trkpt lat="31.06776274" lon="-5.85985472"><ele></ele><time>2014-6-17T11:59:38Z</time></trkpt>
<trkpt lat="31.06790858" lon="-5.85982539"><ele></ele><time>2014-6-17T11:59:41Z</time></trkpt>
<trkpt lat="31.06777942" lon="-5.85980569"><ele></ele><time>2014-6-17T11:59:44Z</time></trkpt>
<trkpt lat="31.06800414" lon="-5.85961182"><ele></ele><time>2014-6-17T11:59:47Z</time></trkpt>
<trkpt lat="31.06808058" lon="-5.85946966"><ele></ele><time>2014-6-17T11:59:50Z</time></trkpt>
<trkpt lat="31.06831972" lon="-5.85912156"><ele></ele><time>2014-6-17T11:59:53Z</time></trkpt>
<trkpt lat="31.06853605" lon="-5.85902047"><ele></ele><time>2014-6-17T11:59:56Z</time></trkpt>
<trkpt lat="31.06863186" lon="-5.85905132"><ele></ele><time>2014-6-17T11:59:59Z</time></trkpt>
<trkpt lat="31.07004253" lon="-5.85870096"><ele></ele><time>2014-6-17T12:0:2Z</time></trkpt>
<trkpt lat="31.07130610" lon="-5.85869995"><ele></ele><time>2014-6-17T12:0:5Z</time></trkpt>
<trkpt lat="31.07163761" lon="-5.85850105"><ele></ele><time>2014-6-17T12:0:8Z</time></trkpt>
<trkpt lat="31.07190407" lon="-5.85815974"><ele></ele><time>2014-6-17T12:0:11Z</time></trkpt>
<trkpt lat="31.07219794" lon="-5.85789872"><ele></ele><time>2014-6-17T12:0:14Z</time></trkpt>
<trkpt lat="31.07251360" lon="-5.85785480"><ele></ele><time>2014-6-17T12:0:17Z</time></trkpt>
<trkpt lat="31.07276472" lon="-5.85755498"><ele></ele><time>2014-6-17T12:0:20Z</time></trkpt>
<trkpt lat="31.07298642" lon="-5.85735499"><ele></ele><time>2014-6-17T12:0:23Z</time></trkpt>
<trkpt lat="31.07324408" lon="-5.85737200"><ele></ele><time>2014-6-17T12:0:26Z</time></trkpt>
<trkpt lat="31.07427204" lon="-5.85726857"><ele></ele><time>2014-6-17T12:0:29Z</time></trkpt>
<trkpt lat="31.07466666" lon="-5.85730067"><ele></ele><time>2014-6-17T12:0:32Z</time></trkpt>
<trkpt lat="31.07548532" lon="-5.85743797"><ele></ele><time>2014-6-17T12:0:35Z</time></trkpt>
<trkpt lat="31.07587290" lon="-5.85747619"><ele></ele><time>2014-6-17T12:0:38Z</time></trkpt>
<trkpt lat="31.07819511" lon="-5.85675568"><ele></ele><time>2014-6-17T12:0:41Z</time></trkpt>
<trkpt lat="31.07847640" lon="-5.85670229"><ele></ele><time>2014-6-17T12:0:44Z</time></trkpt>
<trkpt lat="31.07864672" lon="-5.85664161"><ele></ele><time>2014-6-17T12:0:47Z</time></trkpt>
<trkpt lat="31.07883356" lon="-5.85670087"><ele></ele><time>2014-6-17T12:0:50Z</time></trkpt>
<trkpt lat="31.07891888" lon="-5.85678586"><ele></ele><time>2014-6-17T12:0:53Z</time></trkpt>
<trkpt lat="31.07905316" lon="-5.85685953"><ele></ele><time>2014-6-17T12:0:56Z</time></trkpt>
<trkpt lat="31.07954711" lon="-5.85656977"><ele></ele><time>2014-6-17T12:0:59Z</time></trkpt>
<trkpt lat="31.07979747" lon="-5.85626375"><ele></ele><time>2014-6-17T12:1:2Z</time></trkpt>
<trkpt lat="31.07986503" lon="-5.85625780"><ele></ele><time>2014-6-17T12:1:5Z</time></trkpt>
<trkpt lat="31.08081261" lon="-5.85530612"><ele></ele><time>2014-6-17T12:1:8Z</time></trkpt>
<trkpt lat="31.08121938" lon="-5.85480127"><ele></ele><time>2014-6-17T12:1:11Z</time></trkpt>
<trkpt lat="31.08178549" lon="-5.85439450"><ele></ele><time>2014-6-17T12:1:14Z</time></trkpt>
<trkpt lat="31.08203268" lon="-5.85437187"><ele></ele><time>2014-6-17T12:1:17Z</time></trkpt>
<trkpt lat="31.08204349" lon="-5.85380157"><ele></ele><time>2014-6-17T12:1:20Z</time></trkpt>
<trkpt lat="31.08265067" lon="-5.85328666"><ele></ele><time>2014-6-17T12:1:23Z</time></trkpt>
<trkpt lat="31.08286240" lon="-5.85322020"><ele></ele><time>2014-6-17T12:1:26Z</time></trkpt>
<trkpt lat="31.08313632" lon="-5.85335288"><ele></ele><time>2014-6-17T12:1:29Z</time></trkpt>
<trkpt lat="31.08340002" lon="-5.85363586"><ele></ele><time>2014-6-17T12:1:32Z</time></trkpt>
<trkpt lat="31.08364712" lon="-5.85373241"><ele></ele><time>2014-6-17T12:1:35Z</time></trkpt>
<trkpt lat="31.08367746" lon="-5.85334240"><ele></ele><time>2014-6-17T12:1:38Z</time></trkpt>
<trkpt lat="31.08380763" lon="-5.85302456"><ele></ele><time>2014-6-17T12:1:41Z</time></trkpt>
<trkpt lat="31.08389413" lon="-5.85293379"><ele></ele><time>2014-6-17T12:1:44Z</time></trkpt>
<trkpt lat="31.08411047" lon="-5.85168991"><ele></ele><time>2014-6-17T12:1:47Z</time></trkpt>
<trkpt lat="31.08433158" lon="-5.85124877"><ele></ele><time>2014-6-17T12:1:50Z</time></trkpt>
<trkpt lat="31.08450433" lon="-5.85110092"><ele></ele><time>2014-6-17T12:1:53Z</time></trkpt>
<trkpt lat="31.08460441" lon="-5.85093663"><ele></ele><time>2014-6-17T12:1:56Z</time></trkpt>
<trkpt lat="31.08469963" lon="-5.85042492"><ele></ele><time>2014-6-17T12:1:59Z</time></trkpt>
<trkpt lat="31.08471975" lon="-5.85018620"><ele></ele><time>2014-6-17T12:2:2Z</time></trkpt>
<trkpt lat="31.08468371" lon="-5.85004630"><ele></ele><time>2014-6-17T12:2:5Z</time></trkpt>
<trkpt lat="31.08485210" lon="-5.85006961"><ele></ele><time>2014-6-17T12:2:8Z</time></trkpt>
<trkpt lat="31.08516952" lon="-5.85006374"><ele></ele><time>2014-6-17T12:2:11Z</time></trkpt>
<trkpt lat="31.08533540" lon="-5.85012845"><ele></ele><time>2014-6-17T12:2:14Z</time></trkpt>
<trkpt lat="31.08543707" lon="-5.85012853"><ele></ele><time>2014-6-17T12:2:17Z</time></trkpt>
<trkpt lat="31.08578148" lon="-5.85025476"><ele></ele><time>2014-6-17T12:2:20Z</time></trkpt>
<trkpt lat="31.08648766" lon="-5.85046967"><ele></ele><time>2014-6-17T12:2:23Z</time></trkpt>
<trkpt lat="31.08663711" lon="-5.85054360"><ele></ele><time>2014-6-17T12:2:26Z</time></trkpt>
<trkpt lat="31.08675814" lon="-5.85076187"><ele></ele><time>2014-6-17T12:2:29Z</time></trkpt>
<trkpt lat="31.08670961" lon="-5.85097401"><ele></ele><time>2014-6-17T12:2:32Z</time></trkpt>
<trkpt lat="31.08689854" lon="-5.85117468"><ele></ele><time>2014-6-17T12:2:35Z</time></trkpt>
<trkpt lat="31.08698160" lon="-5.85109413"><ele></ele><time>2014-6-17T12:2:38Z</time></trkpt>
<trkpt lat="31.08701488" lon="-5.85102146"><ele></ele><time>2014-6-17T12:2:41Z</time></trkpt>
<trkpt lat="31.08715435" lon="-5.85047060"><ele></ele><time>2014-6-17T12:2:44Z</time></trkpt>
<trkpt lat="31.08715142" lon="-5.85030355"><ele></ele><time>2014-6-17T12:2:47Z</time></trkpt>
<trkpt lat="31.08699409" lon="-5.85004597"><ele></ele><time>2014-6-17T12:2:50Z</time></trkpt>
<trkpt lat="31.08700147" lon="-5.84968186"><ele></ele><time>2014-6-17T12:2:53Z</time></trkpt>
<trkpt lat="31.08704573" lon="-5.84958589"><ele></ele><time>2014-6-17T12:2:56Z</time></trkpt>
<trkpt lat="31.08711647" lon="-5.84952428"><ele></ele><time>2014-6-17T12:2:59Z</time></trkpt>
<trkpt lat="31.08713709" lon="-5.84935631"><ele></ele><time>2014-6-17T12:3:2Z</time></trkpt>
<trkpt lat="31.08726961" lon="-5.84931926"><ele></ele><time>2014-6-17T12:3:5Z</time></trkpt>
<trkpt lat="31.08776322" lon="-5.84942244"><ele></ele><time>2014-6-17T12:3:8Z</time></trkpt>
<trkpt lat="31.08804896" lon="-5.84920191"><ele></ele><time>2014-6-17T12:3:11Z</time></trkpt>
<trkpt lat="31.08906719" lon="-5.84939168"><ele></ele><time>2014-6-17T12:3:14Z</time></trkpt>
<trkpt lat="31.08942392" lon="-5.84935388"><ele></ele><time>2014-6-17T12:3:17Z</time></trkpt>
<trkpt lat="31.08942744" lon="-5.84923854"><ele></ele><time>2014-6-17T12:3:20Z</time></trkpt>
<trkpt lat="31.08958117" lon="-5.84917048"><ele></ele><time>2014-6-17T12:3:23Z</time></trkpt>
<trkpt lat="31.08955627" lon="-5.84899924"><ele></ele><time>2014-6-17T12:3:26Z</time></trkpt>
<trkpt lat="31.08971436" lon="-5.84869984"><ele></ele><time>2014-6-17T12:3:29Z</time></trkpt>
<trkpt lat="31.08979541" lon="-5.84870512"><ele></ele><time>2014-6-17T12:3:32Z</time></trkpt>
<trkpt lat="31.08984805" lon="-5.84860671"><ele></ele><time>2014-6-17T12:3:35Z</time></trkpt>
<trkpt lat="31.08999934" lon="-5.84857738"><ele></ele><time>2014-6-17T12:3:38Z</time></trkpt>
<trkpt lat="31.09038558" lon="-5.84833975"><ele></ele><time>2014-6-17T12:3:41Z</time></trkpt>
<trkpt lat="31.09064902" lon="-5.84828133"><ele></ele><time>2014-6-17T12:3:44Z</time></trkpt>
<trkpt lat="31.09136635" lon="-5.84789995"><ele></ele><time>2014-6-17T12:3:47Z</time></trkpt>
<trkpt lat="31.09162945" lon="-5.84771446"><ele></ele><time>2014-6-17T12:3:50Z</time></trkpt>
<trkpt lat="31.09184260" lon="-5.84762813"><ele></ele><time>2014-6-17T12:3:53Z</time></trkpt>
<trkpt lat="31.09206892" lon="-5.84759879"><ele></ele><time>2014-6-17T12:3:56Z</time></trkpt>
<trkpt lat="31.09218098" lon="-5.84752025"><ele></ele><time>2014-6-17T12:3:59Z</time></trkpt>
<trkpt lat="31.09224879" lon="-5.84753634"><ele></ele><time>2014-6-17T12:4:2Z</time></trkpt>
<trkpt lat="31.09230361" lon="-5.84749209"><ele></ele><time>2014-6-17T12:4:5Z</time></trkpt>
<trkpt lat="31.09243277" lon="-5.84751623"><ele></ele><time>2014-6-17T12:4:8Z</time></trkpt>
<trkpt lat="31.09260033" lon="-5.84747826"><ele></ele><time>2014-6-17T12:4:11Z</time></trkpt>
<trkpt lat="31.09308941" lon="-5.84736066"><ele></ele><time>2014-6-17T12:4:14Z</time></trkpt>
<trkpt lat="31.09409356" lon="-5.84728916"><ele></ele><time>2014-6-17T12:4:17Z</time></trkpt>
<trkpt lat="31.09420085" lon="-5.84724583"><ele></ele><time>2014-6-17T12:4:20Z</time></trkpt>
<trkpt lat="31.09445424" lon="-5.84723703"><ele></ele><time>2014-6-17T12:4:23Z</time></trkpt>
<trkpt lat="31.09474098" lon="-5.84673118"><ele></ele><time>2014-6-17T12:4:26Z</time></trkpt>
<trkpt lat="31.09484333" lon="-5.84663269"><ele></ele><time>2014-6-17T12:4:29Z</time></trkpt>
<trkpt lat="31.09491969" lon="-5.84661576"><ele></ele><time>2014-6-17T12:4:32Z</time></trkpt>
<trkpt lat="31.09545562" lon="-5.84625383"><ele></ele><time>2014-6-17T12:4:35Z</time></trkpt>
<trkpt lat="31.09552796" lon="-5.84614294"><ele></ele><time>2014-6-17T12:4:38Z</time></trkpt>
<trkpt lat="31.09552477" lon="-5.84583943"><ele></ele><time>2014-6-17T12:4:41Z</time></trkpt>
<trkpt lat="31.09568068" lon="-5.84562887"><ele></ele><time>2014-6-17T12:4:44Z</time></trkpt>
<trkpt lat="31.09581152" lon="-5.84535629"><ele></ele><time>2014-6-17T12:4:47Z</time></trkpt>
<trkpt lat="31.09584874" lon="-5.84519411"><ele></ele><time>2014-6-17T12:4:50Z</time></trkpt>
<trkpt lat="31.09613908" lon="-5.84489672"><ele></ele><time>2014-6-17T12:4:53Z</time></trkpt>
<trkpt lat="31.09613246" lon="-5.84482564"><ele></ele><time>2014-6-17T12:4:56Z</time></trkpt>
<trkpt lat="31.09639825" lon="-5.84435700"><ele></ele><time>2014-6-17T12:4:59Z</time></trkpt>
<trkpt lat="31.09643698" lon="-5.84429582"><ele></ele><time>2014-6-17T12:5:2Z</time></trkpt>
<trkpt lat="31.09643849" lon="-5.84417654"><ele></ele><time>2014-6-17T12:5:5Z</time></trkpt>
<trkpt lat="31.09630463" lon="-5.84379307"><ele></ele><time>2014-6-17T12:5:8Z</time></trkpt>
<trkpt lat="31.09630027" lon="-5.84368687"><ele></ele><time>2014-6-17T12:5:11Z</time></trkpt>
<trkpt lat="31.09623095" lon="-5.84366038"><ele></ele><time>2014-6-17T12:5:14Z</time></trkpt>
<trkpt lat="31.09616582" lon="-5.84367438"><ele></ele><time>2014-6-17T12:5:17Z</time></trkpt>
<trkpt lat="31.09631276" lon="-5.84345109"><ele></ele><time>2014-6-17T12:5:20Z</time></trkpt>
<trkpt lat="31.09656891" lon="-5.84326870"><ele></ele><time>2014-6-17T12:5:23Z</time></trkpt>
<trkpt lat="31.09669254" lon="-5.84297961"><ele></ele><time>2014-6-17T12:5:26Z</time></trkpt>
<trkpt lat="31.09678851" lon="-5.84289311"><ele></ele><time>2014-6-17T12:5:29Z</time></trkpt>
<trkpt lat="31.09697694" lon="-5.84292135"><ele></ele><time>2014-6-17T12:5:32Z</time></trkpt>
<trkpt lat="31.09705925" lon="-5.84303945"><ele></ele><time>2014-6-17T12:5:35Z</time></trkpt>
<trkpt lat="31.09740291" lon="-5.84330063"><ele></ele><time>2014-6-17T12:5:38Z</time></trkpt>
<trkpt lat="31.09759024" lon="-5.84337708"><ele></ele><time>2014-6-17T12:5:41Z</time></trkpt>
<trkpt lat="31.09759661" lon="-5.84341597"><ele></ele><time>2014-6-17T12:5:44Z</time></trkpt>
<trkpt lat="31.09763517" lon="-5.84334849"><ele></ele><time>2014-6-17T12:5:47Z</time></trkpt>
<trkpt lat="31.09775377" lon="-5.84338613"><ele></ele><time>2014-6-17T12:5:50Z</time></trkpt>
<trkpt lat="31.09803306" lon="-5.84336098"><ele></ele><time>2014-6-17T12:5:53Z</time></trkpt>
<trkpt lat="31.09798620" lon="-5.84332167"><ele></ele><time>2014-6-17T12:5:56Z</time></trkpt>
<trkpt lat="31.09798989" lon="-5.84338378"><ele></ele><time>2014-6-17T12:5:59Z</time></trkpt>
<trkpt lat="31.09800364" lon="-5.84338336"><ele></ele><time>2014-6-17T12:6:2Z</time></trkpt>
<trkpt lat="31.09851728" lon="-5.84352485"><ele></ele><time>2014-6-17T12:6:5Z</time></trkpt>
<trkpt lat="31.09856028" lon="-5.84331128"><ele></ele><time>2014-6-17T12:6:8Z</time></trkpt>
<trkpt lat="31.09928808" lon="-5.84315605"><ele></ele><time>2014-6-17T12:6:11Z</time></trkpt>
<trkpt lat="31.09972117" lon="-5.84311321"><ele></ele><time>2014-6-17T12:6:14Z</time></trkpt>
<trkpt lat="31.09988018" lon="-5.84279059"><ele></ele><time>2014-6-17T12:6:17Z</time></trkpt>
<trkpt lat="31.10109556" lon="-5.84191862"><ele></ele><time>2014-6-17T12:6:20Z</time></trkpt>
<trkpt lat="31.10139186" lon="-5.84174629"><ele></ele><time>2014-6-17T12:6:23Z</time></trkpt>
<trkpt lat="31.10176309" lon="-5.84158394"><ele></ele><time>2014-6-17T12:6:26Z</time></trkpt>
<trkpt lat="31.10208571" lon="-5.84167656"><ele></ele><time>2014-6-17T12:6:29Z</time></trkpt>
<trkpt lat="31.10213759" lon="-5.84153725"><ele></ele><time>2014-6-17T12:6:32Z</time></trkpt>
<trkpt lat="31.10258988" lon="-5.84151185"><ele></ele><time>2014-6-17T12:6:35Z</time></trkpt>
<trkpt lat="31.10296514" lon="-5.84150171"><ele></ele><time>2014-6-17T12:6:38Z</time></trkpt>
<trkpt lat="31.10311048" lon="-5.84117188"><ele></ele><time>2014-6-17T12:6:41Z</time></trkpt>
<trkpt lat="31.10314476" lon="-5.84099502"><ele></ele><time>2014-6-17T12:6:44Z</time></trkpt>
<trkpt lat="31.10307687" lon="-5.84098882"><ele></ele><time>2014-6-17T12:6:47Z</time></trkpt>
<trkpt lat="31.10307259" lon="-5.84083015"><ele></ele><time>2014-6-17T12:6:50Z</time></trkpt>
<trkpt lat="31.10317008" lon="-5.84074281"><ele></ele><time>2014-6-17T12:6:53Z</time></trkpt>
<trkpt lat="31.10309808" lon="-5.84070954"><ele></ele><time>2014-6-17T12:6:56Z</time></trkpt>
<trkpt lat="31.10319053" lon="-5.84059940"><ele></ele><time>2014-6-17T12:6:59Z</time></trkpt>
<trkpt lat="31.10403123" lon="-5.84055095"><ele></ele><time>2014-6-17T12:7:2Z</time></trkpt>
<trkpt lat="31.10429962" lon="-5.84074114"><ele></ele><time>2014-6-17T12:7:5Z</time></trkpt>
<trkpt lat="31.10433768" lon="-5.84040192"><ele></ele><time>2014-6-17T12:7:8Z</time></trkpt>
<trkpt lat="31.10447765" lon="-5.84044307"><ele></ele><time>2014-6-17T12:7:11Z</time></trkpt>
<trkpt lat="31.10456835" lon="-5.84043846"><ele></ele><time>2014-6-17T12:7:14Z</time></trkpt>
<trkpt lat="31.10455007" lon="-5.84026312"><ele></ele><time>2014-6-17T12:7:17Z</time></trkpt>
<trkpt lat="31.10444555" lon="-5.84021349"><ele></ele><time>2014-6-17T12:7:20Z</time></trkpt>
<trkpt lat="31.10453800" lon="-5.84017150"><ele></ele><time>2014-6-17T12:7:23Z</time></trkpt>
<trkpt lat="31.10444052" lon="-5.84013152"><ele></ele><time>2014-6-17T12:7:26Z</time></trkpt>
<trkpt lat="31.10458838" lon="-5.84005633"><ele></ele><time>2014-6-17T12:7:29Z</time></trkpt>
<trkpt lat="31.10454546" lon="-5.84003094"><ele></ele><time>2014-6-17T12:7:32Z</time></trkpt>
<trkpt lat="31.10404707" lon="-5.83996380"><ele></ele><time>2014-6-17T12:7:35Z</time></trkpt>
<trkpt lat="31.10380844" lon="-5.83967571"><ele></ele><time>2014-6-17T12:7:38Z</time></trkpt>
<trkpt lat="31.10381758" lon="-5.83945896"><ele></ele><time>2014-6-17T12:7:41Z</time></trkpt>
<trkpt lat="31.10391154" lon="-5.83933029"><ele></ele><time>2014-6-17T12:7:44Z</time></trkpt>
<trkpt lat="31.10398949" lon="-5.83936147"><ele></ele><time>2014-6-17T12:7:47Z</time></trkpt>
<trkpt lat="31.10400533" lon="-5.83932795"><ele></ele><time>2014-6-17T12:7:50Z</time></trkpt>
<trkpt lat="31.10404154" lon="-5.83918378"><ele></ele><time>2014-6-17T12:7:53Z</time></trkpt>
<trkpt lat="31.10412436" lon="-5.83931210"><ele></ele><time>2014-6-17T12:7:56Z</time></trkpt>
<trkpt lat="31.10424891" lon="-5.83936491"><ele></ele><time>2014-6-17T12:7:59Z</time></trkpt>
<trkpt lat="31.10436332" lon="-5.83926952"><ele></ele><time>2014-6-17T12:8:2Z</time></trkpt>
<trkpt lat="31.10450372" lon="-5.83931839"><ele></ele><time>2014-6-17T12:8:5Z</time></trkpt>
<trkpt lat="31.10462693" lon="-5.83930833"><ele></ele><time>2014-6-17T12:8:8Z</time></trkpt>
<trkpt lat="31.10482450" lon="-5.83951285"><ele></ele><time>2014-6-17T12:8:11Z</time></trkpt>
<trkpt lat="31.10497269" lon="-5.83954881"><ele></ele><time>2014-6-17T12:8:14Z</time></trkpt>
<trkpt lat="31.10505952" lon="-5.83966414"><ele></ele><time>2014-6-17T12:8:17Z</time></trkpt>
<trkpt lat="31.10513815" lon="-5.83964109"><ele></ele><time>2014-6-17T12:8:20Z</time></trkpt>
<trkpt lat="31.10518676" lon="-5.83975945"><ele></ele><time>2014-6-17T12:8:23Z</time></trkpt>
<trkpt lat="31.10543805" lon="-5.83993237"><ele></ele><time>2014-6-17T12:8:26Z</time></trkpt>
<trkpt lat="31.10564517" lon="-5.84015164"><ele></ele><time>2014-6-17T12:8:29Z</time></trkpt>
<trkpt lat="31.10599268" lon="-5.84035993"><ele></ele><time>2014-6-17T12:8:32Z</time></trkpt>
<trkpt lat="31.10614213" lon="-5.84041508"><ele></ele><time>2014-6-17T12:8:35Z</time></trkpt>
<trkpt lat="31.10621053" lon="-5.84051432"><ele></ele><time>2014-6-17T12:8:38Z</time></trkpt>
<trkpt lat="31.10619762" lon="-5.84049471"><ele></ele><time>2014-6-17T12:8:41Z</time></trkpt>
<trkpt lat="31.10624556" lon="-5.84047006"><ele></ele><time>2014-6-17T12:8:44Z</time></trkpt>
<trkpt lat="31.10623257" lon="-5.84042447"><ele></ele><time>2014-6-17T12:8:47Z</time></trkpt>
<trkpt lat="31.10617692" lon="-5.84039739"><ele></ele><time>2014-6-17T12:8:50Z</time></trkpt>
<trkpt lat="31.10635512" lon="-5.84075253"><ele></ele><time>2014-6-17T12:8:53Z</time></trkpt>
<trkpt lat="31.10642552" lon="-5.84079771"><ele></ele><time>2014-6-17T12:8:56Z</time></trkpt>
<trkpt lat="31.10644254" lon="-5.84088187"><ele></ele><time>2014-6-17T12:8:59Z</time></trkpt>
<trkpt lat="31.10632184" lon="-5.84108873"><ele></ele><time>2014-6-17T12:9:2Z</time></trkpt>
<trkpt lat="31.10618094" lon="-5.84131387"><ele></ele><time>2014-6-17T12:9:5Z</time></trkpt>
<trkpt lat="31.10624716" lon="-5.84143365"><ele></ele><time>2014-6-17T12:9:8Z</time></trkpt>
<trkpt lat="31.10636056" lon="-5.84150464"><ele></ele><time>2014-6-17T12:9:11Z</time></trkpt>
<trkpt lat="31.10656894" lon="-5.84152518"><ele></ele><time>2014-6-17T12:9:14Z</time></trkpt>
<trkpt lat="31.10656139" lon="-5.84146307"><ele></ele><time>2014-6-17T12:9:17Z</time></trkpt>
<trkpt lat="31.10675468" lon="-5.84125067"><ele></ele><time>2014-6-17T12:9:20Z</time></trkpt>
<trkpt lat="31.10694462" lon="-5.84128655"><ele></ele><time>2014-6-17T12:9:23Z</time></trkpt>
<trkpt lat="31.10705417" lon="-5.84125486"><ele></ele><time>2014-6-17T12:9:26Z</time></trkpt>
<trkpt lat="31.10712977" lon="-5.84128160"><ele></ele><time>2014-6-17T12:9:29Z</time></trkpt>
<trkpt lat="31.10719456" lon="-5.84135477"><ele></ele><time>2014-6-17T12:9:32Z</time></trkpt>
<trkpt lat="31.10717914" lon="-5.84144513"><ele></ele><time>2014-6-17T12:9:35Z</time></trkpt>
<trkpt lat="31.10711879" lon="-5.84166289"><ele></ele><time>2014-6-17T12:9:38Z</time></trkpt>
<trkpt lat="31.10721124" lon="-5.84171352"><ele></ele><time>2014-6-17T12:9:41Z</time></trkpt>
<trkpt lat="31.10741610" lon="-5.84168200"><ele></ele><time>2014-6-17T12:9:44Z</time></trkpt>
<trkpt lat="31.10751961" lon="-5.84199138"><ele></ele><time>2014-6-17T12:9:47Z</time></trkpt>
<trkpt lat="31.10748357" lon="-5.84229372"><ele></ele><time>2014-6-17T12:9:50Z</time></trkpt>
<trkpt lat="31.10752422" lon="-5.84246378"><ele></ele><time>2014-6-17T12:9:53Z</time></trkpt>
<trkpt lat="31.10742481" lon="-5.84252095"><ele></ele><time>2014-6-17T12:9:56Z</time></trkpt>
<trkpt lat="31.10737167" lon="-5.84262514"><ele></ele><time>2014-6-17T12:9:59Z</time></trkpt>
<trkpt lat="31.10741233" lon="-5.84267920"><ele></ele><time>2014-6-17T12:10:2Z</time></trkpt>
<trkpt lat="31.10741015" lon="-5.84268004"><ele></ele><time>2014-6-17T12:10:5Z</time></trkpt>
<trkpt lat="31.10745004" lon="-5.84278179"><ele></ele><time>2014-6-17T12:10:8Z</time></trkpt>
<trkpt lat="31.10775623" lon="-5.84253964"><ele></ele><time>2014-6-17T12:10:11Z</time></trkpt>
<trkpt lat="31.10780803" lon="-5.84254316"><ele></ele><time>2014-6-17T12:10:14Z</time></trkpt>
<trkpt lat="31.10817525" lon="-5.84258490"><ele></ele><time>2014-6-17T12:10:17Z</time></trkpt>
<trkpt lat="31.10830408" lon="-5.84266671"><ele></ele><time>2014-6-17T12:10:20Z</time></trkpt>
<trkpt lat="31.10820081" lon="-5.84277970"><ele></ele><time>2014-6-17T12:10:23Z</time></trkpt>
<trkpt lat="31.10804432" lon="-5.84263930"><ele></ele><time>2014-6-17T12:10:26Z</time></trkpt>
<trkpt lat="31.10795447" lon="-5.84251173"><ele></ele><time>2014-6-17T12:10:29Z</time></trkpt>
<trkpt lat="31.10799151" lon="-5.84242037"><ele></ele><time>2014-6-17T12:10:32Z</time></trkpt>
<trkpt lat="31.10807206" lon="-5.84236018"><ele></ele><time>2014-6-17T12:10:35Z</time></trkpt>
<trkpt lat="31.10828287" lon="-5.84233303"><ele></ele><time>2014-6-17T12:10:38Z</time></trkpt>
<trkpt lat="31.10862778" lon="-5.84245247"><ele></ele><time>2014-6-17T12:10:41Z</time></trkpt>
<trkpt lat="31.10867766" lon="-5.84249513"><ele></ele><time>2014-6-17T12:10:44Z</time></trkpt>
<trkpt lat="31.10867933" lon="-5.84254115"><ele></ele><time>2014-6-17T12:10:47Z</time></trkpt>
<trkpt lat="31.10880850" lon="-5.84257208"><ele></ele><time>2014-6-17T12:10:50Z</time></trkpt>
<trkpt lat="31.10889441" lon="-5.84248139"><ele></ele><time>2014-6-17T12:10:53Z</time></trkpt>
<trkpt lat="31.10914545" lon="-5.84247837"><ele></ele><time>2014-6-17T12:10:56Z</time></trkpt>
<trkpt lat="31.10907328" lon="-5.84241970"><ele></ele><time>2014-6-17T12:10:59Z</time></trkpt>
<trkpt lat="31.10910111" lon="-5.84234308"><ele></ele><time>2014-6-17T12:11:2Z</time></trkpt>
<trkpt lat="31.10931502" lon="-5.84235515"><ele></ele><time>2014-6-17T12:11:5Z</time></trkpt>
<trkpt lat="31.10948299" lon="-5.84240880"><ele></ele><time>2014-6-17T12:11:8Z</time></trkpt>
<trkpt lat="31.10961869" lon="-5.84242581"><ele></ele><time>2014-6-17T12:11:11Z</time></trkpt>
<trkpt lat="31.11001180" lon="-5.84269881"><ele></ele><time>2014-6-17T12:11:14Z</time></trkpt>
<trkpt lat="31.11020425" lon="-5.84250301"><ele></ele><time>2014-6-17T12:11:17Z</time></trkpt>
<trkpt lat="31.11059049" lon="-5.84266126"><ele></ele><time>2014-6-17T12:11:20Z</time></trkpt>
<trkpt lat="31.11088444" lon="-5.84257074"><ele></ele><time>2014-6-17T12:11:23Z</time></trkpt>
<trkpt lat="31.11100397" lon="-5.84261583"><ele></ele><time>2014-6-17T12:11:26Z</time></trkpt>
<trkpt lat="31.11133221" lon="-5.84262589"><ele></ele><time>2014-6-17T12:11:29Z</time></trkpt>
<trkpt lat="31.11141234" lon="-5.84280501"><ele></ele><time>2014-6-17T12:11:32Z</time></trkpt>
<trkpt lat="31.11143053" lon="-5.84276905"><ele></ele><time>2014-6-17T12:11:35Z</time></trkpt>
<trkpt lat="31.11149347" lon="-5.84282236"><ele></ele><time>2014-6-17T12:11:38Z</time></trkpt>
<trkpt lat="31.11152231" lon="-5.84278431"><ele></ele><time>2014-6-17T12:11:41Z</time></trkpt>
<trkpt lat="31.11168567" lon="-5.84275807"><ele></ele><time>2014-6-17T12:11:44Z</time></trkpt>
<trkpt lat="31.11174677" lon="-5.84263477"><ele></ele><time>2014-6-17T12:11:47Z</time></trkpt>
<trkpt lat="31.11181173" lon="-5.84259169"><ele></ele><time>2014-6-17T12:11:50Z</time></trkpt>
<trkpt lat="31.11214081" lon="-5.84258138"><ele></ele><time>2014-6-17T12:11:53Z</time></trkpt>
<trkpt lat="31.11237131" lon="-5.84259328"><ele></ele><time>2014-6-17T12:11:56Z</time></trkpt>
<trkpt lat="31.11255823" lon="-5.84267534"><ele></ele><time>2014-6-17T12:11:59Z</time></trkpt>
<trkpt lat="31.11267272" lon="-5.84270963"><ele></ele><time>2014-6-17T12:12:2Z</time></trkpt>
<trkpt lat="31.11262050" lon="-5.84246672"><ele></ele><time>2014-6-17T12:12:5Z</time></trkpt>
<trkpt lat="31.11281698" lon="-5.84240754"><ele></ele><time>2014-6-17T12:12:8Z</time></trkpt>
<trkpt lat="31.11334688" lon="-5.84212549"><ele></ele><time>2014-6-17T12:12:11Z</time></trkpt>
<trkpt lat="31.11358409" lon="-5.84195903"><ele></ele><time>2014-6-17T12:12:14Z</time></trkpt>
<trkpt lat="31.11381216" lon="-5.84164739"><ele></ele><time>2014-6-17T12:12:17Z</time></trkpt>
<trkpt lat="31.11375424" lon="-5.84167605"><ele></ele><time>2014-6-17T12:12:20Z</time></trkpt>
<trkpt lat="31.11370152" lon="-5.84165434"><ele></ele><time>2014-6-17T12:12:23Z</time></trkpt>
<trkpt lat="31.11481723" lon="-5.84190815"><ele></ele><time>2014-6-17T12:12:26Z</time></trkpt>
<trkpt lat="31.11517078" lon="-5.84204377"><ele></ele><time>2014-6-17T12:12:29Z</time></trkpt>
<trkpt lat="31.11516299" lon="-5.84206807"><ele></ele><time>2014-6-17T12:12:32Z</time></trkpt>
<trkpt lat="31.11570479" lon="-5.84165510"><ele></ele><time>2014-6-17T12:12:35Z</time></trkpt>
<trkpt lat="31.11600319" lon="-5.84133457"><ele></ele><time>2014-6-17T12:12:38Z</time></trkpt>
<trkpt lat="31.11626353" lon="-5.84112645"><ele></ele><time>2014-6-17T12:12:41Z</time></trkpt>
<trkpt lat="31.11658229" lon="-5.84114313"><ele></ele><time>2014-6-17T12:12:44Z</time></trkpt>
<trkpt lat="31.11643871" lon="-5.84086946"><ele></ele><time>2014-6-17T12:12:47Z</time></trkpt>
<trkpt lat="31.11639194" lon="-5.84082546"><ele></ele><time>2014-6-17T12:12:50Z</time></trkpt>
<trkpt lat="31.11641080" lon="-5.84081138"><ele></ele><time>2014-6-17T12:12:53Z</time></trkpt>
<trkpt lat="31.11638197" lon="-5.84075974"><ele></ele><time>2014-6-17T12:12:56Z</time></trkpt>
<trkpt lat="31.11642153" lon="-5.84072563"><ele></ele><time>2014-6-17T12:12:59Z</time></trkpt>
<trkpt lat="31.11637367" lon="-5.84058087"><ele></ele><time>2014-6-17T12:13:2Z</time></trkpt>
<trkpt lat="31.11639865" lon="-5.84052522"><ele></ele><time>2014-6-17T12:13:5Z</time></trkpt>
<trkpt lat="31.11644508" lon="-5.84058833"><ele></ele><time>2014-6-17T12:13:8Z</time></trkpt>
<trkpt lat="31.11692713" lon="-5.84075689"><ele></ele><time>2014-6-17T12:13:11Z</time></trkpt>
<trkpt lat="31.11713567" lon="-5.84090894"><ele></ele><time>2014-6-17T12:13:14Z</time></trkpt>
<trkpt lat="31.11731110" lon="-5.84098237"><ele></ele><time>2014-6-17T12:13:17Z</time></trkpt>
<trkpt lat="31.11740808" lon="-5.84104741"><ele></ele><time>2014-6-17T12:13:20Z</time></trkpt>
<trkpt lat="31.11748368" lon="-5.84111908"><ele></ele><time>2014-6-17T12:13:23Z</time></trkpt>
<trkpt lat="31.11747103" lon="-5.84118906"><ele></ele><time>2014-6-17T12:13:26Z</time></trkpt>
<trkpt lat="31.11751663" lon="-5.84112964"><ele></ele><time>2014-6-17T12:13:29Z</time></trkpt>
<trkpt lat="31.11759181" lon="-5.84113123"><ele></ele><time>2014-6-17T12:13:32Z</time></trkpt>
<trkpt lat="31.11762006" lon="-5.84090852"><ele></ele><time>2014-6-17T12:13:35Z</time></trkpt>
<trkpt lat="31.11758620" lon="-5.84095881"><ele></ele><time>2014-6-17T12:13:38Z</time></trkpt>
<trkpt lat="31.11746709" lon="-5.84098597"><ele></ele><time>2014-6-17T12:13:41Z</time></trkpt>
<trkpt lat="31.11750296" lon="-5.84091799"><ele></ele><time>2014-6-17T12:13:44Z</time></trkpt>
<trkpt lat="31.11751822" lon="-5.84102377"><ele></ele><time>2014-6-17T12:13:47Z</time></trkpt>
<trkpt lat="31.11777311" lon="-5.84074239"><ele></ele><time>2014-6-17T12:13:50Z</time></trkpt>
<trkpt lat="31.11809565" lon="-5.84069520"><ele></ele><time>2014-6-17T12:13:53Z</time></trkpt>
<trkpt lat="31.11841776" lon="-5.84054098"><ele></ele><time>2014-6-17T12:13:56Z</time></trkpt>
<trkpt lat="31.11846680" lon="-5.84054994"><ele></ele><time>2014-6-17T12:13:59Z</time></trkpt>
<trkpt lat="31.11860535" lon="-5.84067760"><ele></ele><time>2014-6-17T12:14:2Z</time></trkpt>
<trkpt lat="31.11862731" lon="-5.84059487"><ele></ele><time>2014-6-17T12:14:5Z</time></trkpt>
<trkpt lat="31.11867484" lon="-5.84059328"><ele></ele><time>2014-6-17T12:14:8Z</time></trkpt>
<trkpt lat="31.11880610" lon="-5.84053360"><ele></ele><time>2014-6-17T12:14:11Z</time></trkpt>
<trkpt lat="31.11895136" lon="-5.84043503"><ele></ele><time>2014-6-17T12:14:14Z</time></trkpt>
<trkpt lat="31.11965586" lon="-5.84033461"><ele></ele><time>2014-6-17T12:14:17Z</time></trkpt>
<trkpt lat="31.12018785" lon="-5.84013018"><ele></ele><time>2014-6-17T12:14:20Z</time></trkpt>
<trkpt lat="31.12032054" lon="-5.83997838"><ele></ele><time>2014-6-17T12:14:23Z</time></trkpt>
<trkpt lat="31.12034778" lon="-5.83999104"><ele></ele><time>2014-6-17T12:14:26Z</time></trkpt>
<trkpt lat="31.12040872" lon="-5.83993614"><ele></ele><time>2014-6-17T12:14:29Z</time></trkpt>
<trkpt lat="31.12044887" lon="-5.83984268"><ele></ele><time>2014-6-17T12:14:32Z</time></trkpt>
<trkpt lat="31.12050461" lon="-5.83956792"><ele></ele><time>2014-6-17T12:14:35Z</time></trkpt>
<trkpt lat="31.12068599" lon="-5.83921161"><ele></ele><time>2014-6-17T12:14:38Z</time></trkpt>
<trkpt lat="31.12065548" lon="-5.83920297"><ele></ele><time>2014-6-17T12:14:41Z</time></trkpt>
<trkpt lat="31.12083980" lon="-5.83892603"><ele></ele><time>2014-6-17T12:14:44Z</time></trkpt>
<trkpt lat="31.12094189" lon="-5.83869243"><ele></ele><time>2014-6-17T12:14:47Z</time></trkpt>
<trkpt lat="31.12087551" lon="-5.83844449"><ele></ele><time>2014-6-17T12:14:50Z</time></trkpt>
<trkpt lat="31.12094122" lon="-5.83824098"><ele></ele><time>2014-6-17T12:14:53Z</time></trkpt>
<trkpt lat="31.12095186" lon="-5.83795533"><ele></ele><time>2014-6-17T12:14:56Z</time></trkpt>
<trkpt lat="31.12100442" lon="-5.83774595"><ele></ele><time>2014-6-17T12:14:59Z</time></trkpt>
<trkpt lat="31.12101582" lon="-5.83778132"><ele></ele><time>2014-6-17T12:15:2Z</time></trkpt>
<trkpt lat="31.12123207" lon="-5.83741754"><ele></ele><time>2014-6-17T12:15:5Z</time></trkpt>
<trkpt lat="31.12098573" lon="-5.83779817"><ele></ele><time>2014-6-17T12:15:8Z</time></trkpt>
<trkpt lat="31.12101221" lon="-5.83778450"><ele></ele><time>2014-6-17T12:15:11Z</time></trkpt>
<trkpt lat="31.12101297" lon="-5.83778492"><ele></ele><time>2014-6-17T12:15:14Z</time></trkpt>
<trkpt lat="31.12123492" lon="-5.83712904"><ele></ele><time>2014-6-17T12:15:17Z</time></trkpt>
<trkpt lat="31.12121992" lon="-5.83717698"><ele></ele><time>2014-6-17T12:15:20Z</time></trkpt>
<trkpt lat="31.12119025" lon="-5.83727438"><ele></ele><time>2014-6-17T12:15:23Z</time></trkpt>
<trkpt lat="31.12118891" lon="-5.83727656"><ele></ele><time>2014-6-17T12:15:26Z</time></trkpt>
<trkpt lat="31.12118790" lon="-5.83727782"><ele></ele><time>2014-6-17T12:15:29Z</time></trkpt>
<trkpt lat="31.12101481" lon="-5.83779448"><ele></ele><time>2014-6-17T12:15:32Z</time></trkpt>
<trkpt lat="31.12123576" lon="-5.83713960"><ele></ele><time>2014-6-17T12:15:35Z</time></trkpt>
<trkpt lat="31.12157070" lon="-5.83810670"><ele></ele><time>2014-6-17T12:15:38Z</time></trkpt>
<trkpt lat="31.12147858" lon="-5.83804987"><ele></ele><time>2014-6-17T12:15:41Z</time></trkpt>
<trkpt lat="31.12147179" lon="-5.83804836"><ele></ele><time>2014-6-17T12:15:44Z</time></trkpt>
<trkpt lat="31.12146853" lon="-5.83804761"><ele></ele><time>2014-6-17T12:15:47Z</time></trkpt>
<trkpt lat="31.12100517" lon="-5.83782583"><ele></ele><time>2014-6-17T12:15:50Z</time></trkpt>
</trkseg></trk></gpx>